createdAt,value
2022-10-25T00:02:17.069Z,3.28
2022-10-25T00:04:46.744Z,2.15
2022-10-25T00:07:15.303Z,1.65
2022-10-25T00:09:43.876Z,1.98
2022-10-25T00:12:12.214Z,2.05
2022-10-25T00:14:40.677Z,1.88
2022-10-25T00:17:10.905Z,2.75
2022-10-25T00:19:39.416Z,2.38
2022-10-25T00:22:07.814Z,1.45
2022-10-25T00:24:36.199Z,1.77
2022-10-25T00:27:04.541Z,1.50
2022-10-25T00:29:32.933Z,2.03
2022-10-25T00:32:01.280Z,1.65
2022-10-25T00:34:31.181Z,1.40
2022-10-25T00:36:59.563Z,1.58
2022-10-25T00:39:27.921Z,2.00
2022-10-25T00:41:57.298Z,1.85
2022-10-25T00:44:57.796Z,2.38
2022-10-25T00:47:49.659Z,2.45
2022-10-25T00:50:35.804Z,1.63
2022-10-25T00:53:10.193Z,1.58
2022-10-25T00:55:42.842Z,1.58
2022-10-25T00:58:15.844Z,1.98
2022-10-25T01:00:46.368Z,1.90
2022-10-25T01:03:16.308Z,2.00
2022-10-25T01:05:48.004Z,1.05
2022-10-25T01:08:18.468Z,1.20
2022-10-25T01:10:47.664Z,2.03
2022-10-25T01:13:16.549Z,1.60
2022-10-25T01:15:58.122Z,2.42
2022-10-25T01:18:43.395Z,1.30
2022-10-25T01:21:48.723Z,1.52
2022-10-25T01:25:03.992Z,0.80
2022-10-25T01:28:01.167Z,1.02
2022-10-25T01:31:17.726Z,1.23
2022-10-25T01:33:55.321Z,0.60
2022-10-25T01:36:36.282Z,0.70
2022-10-25T01:39:11.854Z,0.50
2022-10-25T01:41:52.501Z,1.17
2022-10-25T01:47:11.160Z,0.90
2022-10-25T01:49:46.673Z,0.70
2022-10-25T01:52:16.191Z,0.70
2022-10-25T01:54:44.529Z,1.08
2022-10-25T01:57:33.133Z,1.40
2022-10-25T02:00:11.257Z,1.98
2022-10-25T02:03:12.084Z,1.13
2022-10-25T02:05:55.237Z,0.70
2022-10-25T02:08:35.975Z,0.80
2022-10-25T02:11:15.288Z,1.23
2022-10-25T02:13:54.752Z,0.65
2022-10-25T02:16:27.086Z,1.35
2022-10-25T02:19:01.864Z,1.30
2022-10-25T02:21:33.849Z,1.20
2022-10-25T02:24:07.932Z,1.02
2022-10-25T02:26:38.313Z,0.50
2022-10-25T02:29:08.219Z,1.25
2022-10-25T02:31:38.823Z,0.70
2022-10-25T02:34:08.590Z,0.90
2022-10-25T02:36:37.340Z,0.57
2022-10-25T02:39:07.974Z,0.93
2022-10-25T02:41:36.372Z,0.50
2022-10-25T02:44:04.807Z,1.23
2022-10-25T02:46:33.228Z,0.88
2022-10-25T02:49:01.594Z,1.15
2022-10-25T02:51:31.329Z,1.05
2022-10-25T02:53:59.879Z,0.70
2022-10-25T02:56:28.437Z,0.93
2022-10-25T02:58:59.263Z,0.60
2022-10-25T03:01:28.116Z,0.57
2022-10-25T03:03:56.910Z,0.38
2022-10-25T03:06:25.261Z,0.70
2022-10-25T03:08:55.006Z,0.57
2022-10-25T03:11:23.396Z,0.60
2022-10-25T03:13:51.746Z,0.50
2022-10-25T03:16:20.111Z,0.60
2022-10-25T03:18:48.467Z,0.75
2022-10-25T03:21:16.862Z,0.77
2022-10-25T03:23:45.205Z,0.50
2022-10-25T03:26:14.950Z,1.00
2022-10-25T03:28:43.329Z,0.82
2022-10-25T03:31:14.613Z,0.40
2022-10-25T03:33:43.155Z,1.10
2022-10-25T03:36:12.236Z,0.57
2022-10-25T03:38:40.583Z,0.55
2022-10-25T03:41:09.016Z,0.80
2022-10-25T03:43:38.775Z,0.45
2022-10-25T03:46:07.525Z,0.52
2022-10-25T03:48:36.011Z,1.10
2022-10-25T03:51:04.378Z,1.10
2022-10-25T03:53:33.552Z,0.65
2022-10-25T03:56:01.900Z,0.68
2022-10-25T03:58:30.349Z,0.68
2022-10-25T04:01:00.942Z,0.32
2022-10-25T04:03:29.530Z,0.38
2022-10-25T04:05:57.887Z,0.70
2022-10-25T04:08:26.328Z,0.82
2022-10-25T04:10:54.670Z,0.47
2022-10-25T04:13:23.094Z,0.95
2022-10-25T04:15:51.438Z,0.93
2022-10-25T04:18:21.317Z,0.60
2022-10-25T04:20:49.648Z,0.75
2022-10-25T04:23:18.006Z,0.80
2022-10-25T04:25:46.405Z,0.70
2022-10-25T04:28:14.789Z,0.88
2022-10-25T04:30:43.838Z,0.73
2022-10-25T04:33:12.202Z,0.57
2022-10-25T04:35:41.937Z,1.13
2022-10-25T04:38:10.858Z,0.95
2022-10-25T04:40:39.191Z,0.73
2022-10-25T04:43:07.548Z,1.15
2022-10-25T04:45:35.886Z,1.35
2022-10-25T04:48:04.271Z,1.50
2022-10-25T04:50:32.630Z,0.60
2022-10-25T04:53:02.365Z,0.75
2022-10-25T04:55:31.470Z,0.52
2022-10-25T04:57:59.918Z,0.65
2022-10-25T05:00:28.643Z,0.60
2022-10-25T05:02:57.296Z,0.70
2022-10-25T05:05:26.977Z,0.70
2022-10-25T05:07:55.372Z,0.80
2022-10-25T05:10:25.160Z,0.60
2022-10-25T05:12:55.898Z,0.80
2022-10-25T05:15:24.280Z,0.55
2022-10-25T05:17:52.664Z,1.55
2022-10-25T05:20:21.011Z,1.02
2022-10-25T05:22:49.783Z,0.57
2022-10-25T05:25:18.424Z,0.47
2022-10-25T05:27:48.158Z,1.33
2022-10-25T05:30:16.552Z,1.10
2022-10-25T05:32:45.138Z,0.85
2022-10-25T05:35:13.837Z,0.65
2022-10-25T05:37:42.163Z,0.73
2022-10-25T05:40:12.331Z,0.88
2022-10-25T05:42:40.721Z,0.88
2022-10-25T05:45:11.623Z,0.90
2022-10-25T05:47:40.062Z,1.05
2022-10-25T05:50:09.275Z,0.75
2022-10-25T05:52:37.611Z,0.60
2022-10-25T05:55:07.178Z,0.82
2022-10-25T05:57:35.652Z,0.95
2022-10-25T06:00:04.583Z,0.73
2022-10-25T06:02:35.511Z,1.40
2022-10-25T06:05:04.076Z,0.80
2022-10-25T06:07:32.730Z,1.08
2022-10-25T06:10:01.113Z,0.50
2022-10-25T06:12:29.466Z,0.80
2022-10-25T06:14:57.832Z,0.95
2022-10-25T06:17:26.182Z,0.70
2022-10-25T06:19:55.938Z,0.82
2022-10-25T06:22:24.350Z,0.75
2022-10-25T06:24:52.688Z,1.17
2022-10-25T06:27:21.048Z,0.68
2022-10-25T06:29:49.414Z,0.68
2022-10-25T06:32:17.762Z,0.98
2022-10-25T06:34:46.150Z,1.00
2022-10-25T06:37:16.164Z,0.98
2022-10-25T06:39:44.538Z,1.15
2022-10-25T06:42:12.930Z,1.40
2022-10-25T06:44:41.291Z,0.88
2022-10-25T06:47:17.562Z,0.77
2022-10-25T06:49:46.857Z,1.30
2022-10-25T06:52:16.574Z,0.88
2022-10-25T06:54:44.916Z,0.75
2022-10-25T06:57:13.326Z,1.25
2022-10-25T06:59:41.890Z,0.60
2022-10-25T07:02:11.037Z,1.00
2022-10-25T07:04:39.488Z,0.85
2022-10-25T07:07:07.857Z,0.80
2022-10-25T07:09:37.606Z,1.35
2022-10-25T07:12:11.454Z,0.98
2022-10-25T07:14:40.953Z,1.17
2022-10-25T07:17:09.316Z,0.75
2022-10-25T07:19:37.731Z,0.52
2022-10-25T07:22:06.153Z,0.98
2022-10-25T07:24:35.974Z,0.90
2022-10-25T07:27:04.431Z,0.70
2022-10-25T07:29:32.866Z,1.75
2022-10-25T07:32:01.295Z,1.27
2022-10-25T07:34:30.179Z,0.75
2022-10-25T07:36:58.494Z,1.35
2022-10-25T07:39:26.940Z,0.90
2022-10-25T07:41:56.835Z,0.50
2022-10-25T07:44:25.303Z,0.50
2022-10-25T07:46:55.593Z,1.15
2022-10-25T07:49:24.010Z,0.90
2022-10-25T07:51:52.448Z,0.40
2022-10-25T07:54:20.896Z,0.55
2022-10-25T07:56:49.279Z,0.75
2022-10-25T07:59:19.071Z,0.50
2022-10-25T08:01:47.551Z,0.60
2022-10-25T08:04:16.021Z,1.10
2022-10-25T08:06:44.474Z,0.50
2022-10-25T08:09:20.359Z,0.40
2022-10-25T08:12:01.593Z,0.88
2022-10-25T08:14:32.978Z,0.45
2022-10-25T08:17:03.488Z,0.30
2022-10-25T08:19:31.916Z,0.50
2022-10-25T08:22:00.334Z,0.55
2022-10-25T08:24:28.832Z,0.52
2022-10-25T08:26:57.237Z,0.57
2022-10-25T08:29:27.414Z,0.82
2022-10-25T08:31:57.313Z,0.70
2022-10-25T08:34:27.458Z,0.80
2022-10-25T08:36:58.037Z,1.10
2022-10-25T08:39:26.476Z,0.70
2022-10-25T08:41:57.784Z,0.30
2022-10-25T08:44:39.662Z,1.15
2022-10-25T08:47:16.630Z,1.02
2022-10-25T08:49:56.345Z,1.15
2022-10-25T08:52:32.685Z,0.68
2022-10-25T08:55:06.042Z,0.55
2022-10-25T08:57:39.373Z,1.08
2022-10-25T09:00:17.478Z,0.40
2022-10-25T09:02:53.664Z,1.10
2022-10-25T09:05:37.838Z,0.63
2022-10-25T09:08:26.597Z,0.70
2022-10-25T09:11:06.242Z,0.95
2022-10-25T09:13:51.105Z,0.65
2022-10-25T09:16:25.688Z,0.40
2022-10-25T09:18:58.256Z,0.93
2022-10-25T09:21:36.097Z,1.38
2022-10-25T09:24:17.474Z,0.90
2022-10-25T09:27:00.369Z,0.75
2022-10-25T09:29:36.695Z,0.60
2022-10-25T09:32:15.536Z,0.63
2022-10-25T09:34:46.262Z,0.80
2022-10-25T09:37:21.610Z,0.40
2022-10-25T09:39:54.604Z,1.30
2022-10-25T09:42:28.942Z,0.65
2022-10-25T09:45:03.128Z,0.88
2022-10-25T09:47:41.752Z,0.40
2022-10-25T09:50:23.325Z,0.52
2022-10-25T09:53:03.472Z,0.77
2022-10-25T09:55:40.084Z,1.23
2022-10-25T09:58:16.819Z,1.23
2022-10-25T10:00:45.340Z,0.45
2022-10-25T10:03:15.073Z,0.55
2022-10-25T10:05:52.353Z,0.60
2022-10-25T10:08:20.805Z,0.25
2022-10-25T10:10:51.519Z,0.65
2022-10-25T10:13:30.075Z,0.50
2022-10-25T10:16:02.129Z,0.82
2022-10-25T10:18:32.618Z,0.43
2022-10-25T10:21:13.780Z,0.63
2022-10-25T10:23:51.599Z,0.38
2022-10-25T10:26:30.671Z,0.40
2022-10-25T10:29:17.502Z,0.80
2022-10-25T10:31:50.015Z,0.60
2022-10-25T10:34:27.593Z,0.75
2022-10-25T10:37:16.668Z,0.93
2022-10-25T10:39:54.197Z,0.65
2022-10-25T10:42:24.920Z,0.57
2022-10-25T10:45:15.914Z,0.57
2022-10-25T10:47:46.757Z,0.40
2022-10-25T10:50:26.773Z,0.40
2022-10-25T10:53:01.095Z,0.80
2022-10-25T10:55:32.936Z,0.47
2022-10-25T10:58:05.352Z,0.80
2022-10-25T11:00:35.508Z,0.60
2022-10-25T11:03:03.981Z,0.50
2022-10-25T11:05:35.156Z,0.77
2022-10-25T11:08:19.524Z,0.98
2022-10-25T11:10:47.967Z,0.80
2022-10-25T11:13:18.828Z,1.02
2022-10-25T11:16:32.053Z,0.73
2022-10-25T11:19:18.994Z,1.40
2022-10-25T11:22:11.477Z,0.90
2022-10-25T11:24:56.146Z,1.00
2022-10-25T11:27:39.194Z,0.82
2022-10-25T11:30:15.287Z,0.63
2022-10-25T11:33:19.255Z,0.80
2022-10-25T11:36:19.759Z,0.77
2022-10-25T11:39:07.527Z,0.73
2022-10-25T11:41:48.695Z,0.85
2022-10-25T11:44:46.894Z,0.85
2022-10-25T11:47:32.183Z,0.65
2022-10-25T11:50:20.009Z,0.88
2022-10-25T11:53:26.994Z,0.98
2022-10-25T11:56:00.880Z,1.17
2022-10-25T11:58:46.480Z,0.80
2022-10-25T12:01:45.140Z,1.08
2022-10-25T12:04:46.704Z,0.77
2022-10-25T12:07:23.493Z,1.23
2022-10-25T12:10:04.270Z,1.13
2022-10-25T12:12:44.016Z,1.20
2022-10-25T12:15:22.630Z,0.90
2022-10-25T12:17:53.739Z,0.80
2022-10-25T12:20:27.455Z,0.65
2022-10-25T12:22:59.584Z,0.57
2022-10-25T12:25:32.707Z,1.25
2022-10-25T12:28:10.751Z,0.80
2022-10-25T12:30:43.617Z,1.55
2022-10-25T12:33:22.926Z,0.88
2022-10-25T12:35:55.354Z,0.60
2022-10-25T12:38:34.004Z,0.65
2022-10-25T12:41:08.827Z,0.70
2022-10-25T12:43:45.072Z,1.20
2022-10-25T12:46:46.461Z,0.80
2022-10-25T12:49:33.513Z,1.20
2022-10-25T12:52:22.894Z,1.05
2022-10-25T12:55:28.229Z,1.10
2022-10-25T12:58:24.978Z,0.85
2022-10-25T13:01:11.878Z,0.95
2022-10-25T13:04:28.398Z,2.03
2022-10-25T13:06:58.028Z,0.57
2022-10-25T13:09:33.519Z,0.60
2022-10-25T13:12:05.400Z,0.65
2022-10-25T13:14:37.833Z,0.90
2022-10-25T13:17:58.108Z,1.10
2022-10-25T13:20:48.368Z,0.82
2022-10-25T13:24:06.479Z,0.93
2022-10-25T13:27:24.893Z,1.45
2022-10-25T13:30:31.995Z,1.20
2022-10-25T13:33:33.792Z,0.63
2022-10-25T13:36:09.417Z,0.93
2022-10-25T13:38:40.210Z,1.42
2022-10-25T13:41:17.710Z,0.70
2022-10-25T13:44:04.674Z,0.75
2022-10-25T13:46:37.584Z,0.70
2022-10-25T13:49:32.939Z,0.40
2022-10-25T13:52:06.240Z,0.60
2022-10-25T13:54:49.761Z,1.20
2022-10-25T13:57:48.501Z,0.90
2022-10-25T14:00:42.049Z,0.70
2022-10-25T14:03:36.213Z,0.68
2022-10-25T14:06:28.051Z,1.45
2022-10-25T14:09:10.652Z,1.20
2022-10-25T14:11:48.452Z,0.70
2022-10-25T14:14:29.586Z,0.80
2022-10-25T14:17:15.377Z,0.60
2022-10-25T14:19:48.493Z,1.40
2022-10-25T14:22:21.999Z,0.68
2022-10-25T14:24:55.612Z,1.05
2022-10-25T14:27:31.190Z,0.90
2022-10-25T14:30:31.425Z,0.60
2022-10-25T14:33:03.779Z,1.52
2022-10-25T14:35:35.152Z,0.63
2022-10-25T14:38:15.462Z,0.88
2022-10-25T14:40:53.335Z,1.02
2022-10-25T14:43:32.811Z,0.63
2022-10-25T14:46:13.341Z,0.70
2022-10-25T14:48:42.513Z,1.48
2022-10-25T14:51:19.836Z,1.25
2022-10-25T14:53:55.762Z,0.82
2022-10-25T14:56:30.471Z,0.93
2022-10-25T14:59:00.358Z,1.10
2022-10-25T15:01:29.395Z,0.85
2022-10-25T15:04:00.657Z,2.00
2022-10-25T15:06:33.399Z,1.13
2022-10-25T15:12:18.688Z,0.75
2022-10-25T15:14:48.357Z,1.00
2022-10-25T15:17:25.953Z,0.88
2022-10-25T15:20:03.538Z,1.85
2022-10-25T15:22:41.848Z,0.82
2022-10-25T15:25:28.970Z,2.83
2022-10-25T15:28:10.860Z,1.48
2022-10-25T15:30:43.351Z,1.00
2022-10-25T15:33:14.584Z,1.17
2022-10-25T15:35:50.166Z,1.00
2022-10-25T15:38:19.810Z,1.30
2022-10-25T15:40:49.844Z,3.20
2022-10-25T15:43:19.688Z,2.45
2022-10-25T15:45:48.198Z,1.63
2022-10-25T15:48:18.973Z,1.98
2022-10-25T15:50:50.486Z,2.17
2022-10-25T15:53:19.573Z,1.70
2022-10-25T15:55:48.825Z,1.73
2022-10-25T15:58:19.249Z,1.70
2022-10-25T16:00:48.151Z,2.15
2022-10-25T16:03:23.964Z,2.15
2022-10-25T16:05:53.874Z,1.58
2022-10-25T16:08:22.371Z,2.20
2022-10-25T16:10:51.055Z,2.70
2022-10-25T16:13:28.358Z,3.33
2022-10-25T16:15:57.053Z,2.90
2022-10-25T16:20:59.365Z,2.33
2022-10-25T16:23:28.371Z,2.58
2022-10-25T16:25:57.857Z,1.65
2022-10-25T16:28:27.619Z,1.77
2022-10-25T16:30:56.204Z,1.33
2022-10-25T16:33:25.163Z,2.63
2022-10-25T16:35:53.776Z,1.80
2022-10-25T16:38:22.178Z,2.42
2022-10-25T16:40:51.264Z,2.72
2022-10-25T16:43:20.184Z,1.85
2022-10-25T16:45:50.081Z,3.33
2022-10-25T16:48:18.700Z,2.20
2022-10-25T16:50:47.703Z,2.17
2022-10-25T16:53:17.448Z,2.05
2022-10-25T16:55:46.424Z,1.80
2022-10-25T16:58:14.831Z,1.58
2022-10-25T17:00:43.578Z,2.63
2022-10-25T17:03:13.827Z,1.70
2022-10-25T17:05:43.004Z,2.08
2022-10-25T17:08:13.988Z,1.95
2022-10-25T17:10:45.307Z,1.40
2022-10-25T17:13:16.579Z,2.85
2022-10-25T17:15:45.093Z,2.92
2022-10-25T17:18:21.671Z,1.75
2022-10-25T17:20:51.404Z,2.33
2022-10-25T17:23:20.685Z,1.83
2022-10-25T17:26:00.182Z,2.13
2022-10-25T17:28:29.339Z,1.30
2022-10-25T17:31:00.166Z,1.88
2022-10-25T17:33:31.805Z,1.98
2022-10-25T17:36:05.289Z,2.75
2022-10-25T17:38:34.451Z,2.78
2022-10-25T17:41:03.694Z,2.63
2022-10-25T17:43:33.596Z,1.70
2022-10-25T17:46:03.513Z,1.58
2022-10-25T17:48:36.343Z,1.92
2022-10-25T17:51:08.320Z,1.98
2022-10-25T17:53:37.540Z,1.65
2022-10-25T17:56:13.351Z,2.33
2022-10-25T17:58:43.862Z,1.52
2022-10-25T18:01:14.998Z,2.17
2022-10-25T18:03:45.971Z,2.00
2022-10-25T18:06:17.945Z,3.85
2022-10-25T18:08:52.218Z,2.00
2022-10-25T18:11:23.822Z,1.40
2022-10-25T18:13:56.020Z,2.13
2022-10-25T18:16:27.371Z,1.67
2022-10-25T18:19:01.636Z,1.30
2022-10-25T18:21:32.183Z,1.67
2022-10-25T18:24:07.452Z,1.13
2022-10-25T18:26:43.076Z,1.10
2022-10-25T18:29:18.513Z,2.05
2022-10-25T18:31:48.299Z,1.50
2022-10-25T18:34:22.928Z,1.42
2022-10-25T18:36:53.519Z,1.58
2022-10-25T18:39:24.839Z,1.70
2022-10-25T18:41:55.695Z,2.72
2022-10-25T18:44:25.336Z,4.68
2022-10-25T18:46:56.460Z,2.00
2022-10-25T18:49:28.677Z,1.63
2022-10-25T18:51:59.539Z,2.47
2022-10-25T18:54:29.463Z,1.75
2022-10-25T18:57:00.681Z,1.40
2022-10-25T18:59:30.210Z,2.17
2022-10-25T19:01:59.887Z,2.63
2022-10-25T19:04:35.305Z,2.30
2022-10-25T19:07:04.790Z,3.03
2022-10-25T19:09:35.257Z,2.50
2022-10-25T19:12:05.580Z,1.77
2022-10-25T19:14:35.143Z,2.67
2022-10-25T19:17:04.934Z,2.80
2022-10-25T19:19:36.729Z,2.97
2022-10-25T19:22:07.070Z,1.98
2022-10-25T19:24:38.811Z,2.17
2022-10-25T19:27:08.733Z,2.53
2022-10-25T19:29:38.171Z,2.35
2022-10-25T19:32:09.734Z,1.45
2022-10-25T19:34:44.019Z,1.85
2022-10-25T19:37:14.453Z,2.60
2022-10-25T19:39:46.215Z,2.78
2022-10-25T19:42:20.555Z,2.60
2022-10-25T19:44:51.959Z,2.78
2022-10-25T19:47:23.944Z,2.95
2022-10-25T19:49:55.850Z,2.65
2022-10-25T19:52:26.832Z,2.35
2022-10-25T19:54:57.321Z,2.40
2022-10-25T19:57:28.122Z,3.53
2022-10-25T19:59:57.991Z,3.85
2022-10-25T20:02:28.767Z,3.13
2022-10-25T20:04:59.849Z,2.97
2022-10-25T20:07:30.370Z,2.22
2022-10-25T20:09:59.558Z,2.53
2022-10-25T20:12:30.752Z,2.83
2022-10-25T20:15:00.674Z,3.05
2022-10-25T20:17:30.170Z,2.63
2022-10-25T20:20:02.390Z,3.03
2022-10-25T20:22:32.618Z,3.67
2022-10-25T20:25:02.410Z,3.30
2022-10-25T20:27:34.310Z,22.95
2022-10-25T20:30:04.295Z,4.88
2022-10-25T20:32:41.103Z,3.45
2022-10-25T20:35:12.041Z,3.33
2022-10-25T20:37:41.799Z,3.00
2022-10-25T20:40:12.323Z,3.72
2022-10-25T20:42:42.267Z,2.95
2022-10-25T20:45:13.070Z,2.58
2022-10-25T20:47:43.243Z,2.72
2022-10-25T20:50:13.986Z,3.15
2022-10-25T20:52:47.984Z,3.35
2022-10-25T20:55:29.661Z,3.28
2022-10-25T20:57:58.228Z,4.43
2022-10-25T21:00:26.651Z,4.05
2022-10-25T21:02:55.230Z,3.95
2022-10-25T21:05:25.088Z,2.72
2022-10-25T21:07:53.515Z,2.83
2022-10-25T21:10:21.917Z,6.03
2022-10-25T21:12:50.418Z,4.38
2022-10-25T21:15:18.986Z,3.90
2022-10-25T21:17:50.616Z,3.90
2022-10-25T21:20:19.217Z,3.72
2022-10-25T21:22:48.989Z,4.22
2022-10-25T21:25:17.859Z,2.60
2022-10-25T21:27:46.555Z,3.10
2022-10-25T21:30:15.199Z,2.70
2022-10-25T21:32:43.582Z,2.45
2022-10-25T21:35:12.099Z,2.80
2022-10-25T21:37:42.347Z,2.75
2022-10-25T21:40:14.307Z,3.70
2022-10-25T21:42:42.961Z,3.05
2022-10-25T21:45:12.442Z,4.03
2022-10-25T21:47:40.822Z,3.28
2022-10-25T21:50:10.471Z,4.05
2022-10-25T21:52:38.862Z,4.28
2022-10-25T21:55:08.823Z,3.53
2022-10-25T21:57:38.663Z,3.50
2022-10-25T22:00:09.571Z,3.80
2022-10-25T22:02:38.053Z,3.70
2022-10-25T22:05:07.362Z,4.85
2022-10-25T22:07:35.725Z,5.57
2022-10-25T22:10:04.212Z,4.45
2022-10-25T22:12:32.584Z,4.13
2022-10-25T22:15:02.273Z,3.53
2022-10-25T22:17:30.606Z,4.07
2022-10-25T22:19:58.978Z,3.55
2022-10-25T22:22:27.588Z,3.55
2022-10-25T22:24:55.947Z,2.97
2022-10-25T22:27:24.379Z,4.47
2022-10-25T22:29:52.776Z,3.17
2022-10-25T22:32:22.914Z,3.05
2022-10-25T22:34:51.303Z,4.22
2022-10-25T22:37:19.658Z,4.80
2022-10-25T22:39:48.036Z,5.95
2022-10-25T22:42:16.513Z,4.10
2022-10-25T22:44:44.884Z,4.55
2022-10-25T22:47:13.240Z,4.65
2022-10-25T22:49:43.068Z,3.97
2022-10-25T22:52:13.792Z,4.32
2022-10-25T22:54:42.161Z,3.22
2022-10-25T22:57:10.578Z,4.85
2022-10-25T22:59:38.916Z,4.25
2022-10-25T23:02:07.275Z,2.70
2022-10-25T23:04:35.781Z,3.10
2022-10-25T23:07:05.626Z,4.10
2022-10-25T23:09:34.007Z,3.38
2022-10-25T23:12:02.359Z,5.20
2022-10-25T23:14:30.692Z,3.58
2022-10-25T23:16:59.053Z,4.28
2022-10-25T23:19:27.397Z,4.03
2022-10-25T23:21:55.762Z,3.55
2022-10-25T23:24:25.520Z,3.30
2022-10-25T23:26:53.882Z,5.00
2022-10-25T23:29:22.193Z,3.35
2022-10-25T23:31:50.564Z,2.67
2022-10-25T23:34:18.937Z,3.03
2022-10-25T23:36:47.428Z,2.90
2022-10-25T23:39:15.763Z,3.28
2022-10-25T23:41:45.589Z,3.13
2022-10-25T23:44:13.942Z,3.45
2022-10-25T23:46:42.301Z,3.30
2022-10-25T23:49:10.637Z,4.10
2022-10-25T23:51:38.974Z,2.92
2022-10-25T23:54:09.582Z,5.07
2022-10-25T23:56:38.206Z,7.95
2022-10-25T23:59:08.135Z,4.72
